Time;durP1;ratioP1;P1;durP2;ratioP2;P2;SDS_P1;SDS_P2;PMS_P1;PMS_P2;Temp;Humidity;BMP_temperature;BMP_pressure;BME280_temperature;BME280_humidity;BME280_pressure;Samples;Min_cycle;Max_cycle;Signal;HPM_P1;HPM_P2
2024/01/06 00:03:16;;;;;;;39.27;15.00;;;;;5.70;95036.00;;;;8269465;28;20265;-71
2024/01/06 00:07:19;;;;;;;32.63;14.73;;;;;5.80;95041.00;;;;8268355;28;20584;-72
2024/01/06 00:11:24;;;;;;;32.83;14.53;;;;;5.80;95038.00;;;;8268271;28;20203;-71
2024/01/06 00:15:27;;;;;;;28.80;13.83;;;;;5.80;95036.00;;;;8268570;28;20199;-71
2024/01/06 00:19:33;;;;;;;31.00;13.67;;;;;5.90;95040.00;;;;8267797;28;20214;-71
2024/01/06 00:23:36;;;;;;;35.37;13.47;;;;;5.90;95042.00;;;;8268053;28;20199;-71
2024/01/06 00:27:41;;;;;;;37.33;14.30;;;;;5.80;95029.00;;;;8268284;28;20230;-71
2024/01/06 00:31:44;;;;;;;26.47;12.90;;;;;5.80;95028.00;;;;8267778;28;20279;-70
2024/01/06 00:35:47;;;;;;;32.63;14.27;;;;;5.80;95027.00;;;;8268200;28;20220;-70
2024/01/06 00:39:51;;;;;;;31.00;14.43;;;;;5.80;95041.00;;;;8267930;28;20262;-71
2024/01/06 00:43:55;;;;;;;34.77;15.07;;;;;5.90;95035.00;;;;8267465;28;20191;-71
2024/01/06 00:47:58;;;;;;;30.37;13.60;;;;;5.90;95039.00;;;;8267330;28;20289;-71
2024/01/06 00:52:01;;;;;;;35.70;14.57;;;;;5.90;95032.00;;;;8268445;28;20615;-71
2024/01/06 00:56:05;;;;;;;30.97;14.50;;;;;5.90;95037.00;;;;8267289;28;20198;-71
2024/01/06 01:00:11;;;;;;;30.10;14.70;;;;;5.90;95044.00;;;;8267257;28;20557;-70
2024/01/06 01:04:14;;;;;;;35.20;13.23;;;;;5.90;95046.00;;;;8266225;28;20254;-70
2024/01/06 01:08:17;;;;;;;31.73;14.63;;;;;5.90;95046.00;;;;8267804;28;20191;-71
2024/01/06 01:12:20;;;;;;;32.90;14.10;;;;;6.00;95048.00;;;;8267299;28;20540;-71
2024/01/06 01:16:25;;;;;;;41.97;14.57;;;;;6.00;95057.00;;;;8266228;28;20636;-71
2024/01/06 01:20:28;;;;;;;38.80;14.40;;;;;6.00;95056.00;;;;8265092;28;20234;-70
2024/01/06 01:24:31;;;;;;;33.10;14.20;;;;;5.90;95053.00;;;;8266456;28;20226;-71
2024/01/06 01:28:34;;;;;;;34.97;14.97;;;;;5.90;95056.00;;;;8266253;28;20204;-70
2024/01/06 01:32:39;;;;;;;34.30;14.80;;;;;5.90;95054.00;;;;8266772;28;20234;-71
2024/01/06 01:36:42;;;;;;;33.13;14.13;;;;;6.00;95049.00;;;;8266834;28;20199;-71
2024/01/06 01:40:46;;;;;;;37.87;14.80;;;;;6.00;95057.00;;;;8266585;28;20265;-70
2024/01/06 01:44:49;;;;;;;45.63;15.93;;;;;5.90;95044.00;;;;8265883;28;20237;-70
2024/01/06 01:48:54;;;;;;;38.07;14.03;;;;;6.00;95045.00;;;;8266015;28;20195;-70
2024/01/06 01:53:01;;;;;;;62.37;17.13;;;;;5.90;95041.00;;;;8266112;28;20187;-70
2024/01/06 01:57:04;;;;;;;29.53;14.33;;;;;5.90;95044.00;;;;8266414;28;20688;-70
2024/01/06 02:01:08;;;;;;;36.67;14.93;;;;;5.90;95038.00;;;;8266573;28;20639;-70
2024/01/06 02:05:13;;;;;;;34.40;13.63;;;;;5.90;95034.00;;;;8267642;28;20207;-70
2024/01/06 02:09:16;;;;;;;44.23;15.47;;;;;5.90;95033.00;;;;8265696;28;20252;-70
2024/01/06 02:13:20;;;;;;;33.37;15.37;;;;;5.90;95026.00;;;;8263627;28;20293;-70
2024/01/06 02:17:23;;;;;;;45.03;15.30;;;;;5.90;95032.00;;;;8266137;28;20195;-70
2024/01/06 02:21:29;;;;;;;40.00;14.70;;;;;5.90;95041.00;;;;8265485;28;20317;-71
2024/01/06 02:25:35;;;;;;;39.47;15.97;;;;;5.90;95033.00;;;;8266171;28;20179;-71
2024/01/06 02:29:38;;;;;;;43.73;14.57;;;;;5.90;95038.00;;;;8272491;28;20183;-71
2024/01/06 02:33:41;;;;;;;40.43;16.23;;;;;5.80;95044.00;;;;8271802;28;20230;-71
2024/01/06 02:37:44;;;;;;;52.47;16.47;;;;;5.80;95044.00;;;;8270897;28;20237;-71
2024/01/06 02:41:48;;;;;;;53.43;17.60;;;;;5.70;95040.00;;;;8271240;28;20289;-71
2024/01/06 02:45:51;;;;;;;53.50;17.73;;;;;5.70;95041.00;;;;8272171;28;20581;-71
2024/01/06 02:49:55;;;;;;;45.57;16.97;;;;;5.70;95034.00;;;;8271426;28;20198;-71
2024/01/06 02:53:58;;;;;;;36.90;15.53;;;;;5.70;95049.00;;;;8271497;28;20194;-71
2024/01/06 02:58:02;;;;;;;39.40;16.07;;;;;5.70;95044.00;;;;8271227;28;20289;-71
2024/01/06 03:02:05;;;;;;;38.10;16.07;;;;;5.70;95038.00;;;;8305641;22;20835;-72
2024/01/06 03:06:08;;;;;;;40.37;15.13;;;;;5.70;95052.00;;;;8290303;28;20201;-73
2024/01/06 03:10:12;;;;;;;31.33;15.67;;;;;5.70;95053.00;;;;8293717;28;20201;-73
2024/01/06 03:14:16;;;;;;;40.63;15.13;;;;;5.70;95046.00;;;;8295032;28;20288;-72
2024/01/06 03:18:19;;;;;;;30.70;14.13;;;;;5.70;95047.00;;;;8294258;28;20381;-72
2024/01/06 03:22:22;;;;;;;41.33;14.67;;;;;5.70;95042.00;;;;8295772;28;20233;-72
2024/01/06 03:26:26;;;;;;;43.07;16.20;;;;;5.70;95045.00;;;;8294063;28;20197;-72
2024/01/06 03:30:30;;;;;;;42.10;15.70;;;;;5.70;95050.00;;;;8293197;28;20197;-72
2024/01/06 03:34:33;;;;;;;44.67;15.53;;;;;5.70;95046.00;;;;8292848;28;20204;-72
2024/01/06 03:38:37;;;;;;;34.90;13.87;;;;;5.70;95054.00;;;;8292867;28;20244;-72
2024/01/06 03:42:40;;;;;;;49.17;16.77;;;;;5.70;95051.00;;;;8294969;28;22370;-71
2024/01/06 03:46:44;;;;;;;50.13;16.23;;;;;5.70;95061.00;;;;8292227;28;20296;-72
2024/01/06 03:50:47;;;;;;;46.87;16.20;;;;;5.70;95063.00;;;;8293947;28;20631;-71
2024/01/06 03:54:51;;;;;;;50.63;17.07;;;;;5.70;95060.00;;;;8291375;28;20210;-71
2024/01/06 03:58:54;;;;;;;46.40;16.77;;;;;5.60;95063.00;;;;8290081;28;20280;-71
2024/01/06 04:02:58;;;;;;;40.17;15.50;;;;;5.70;95060.00;;;;8281757;28;20230;-71
2024/01/06 04:07:05;;;;;;;41.53;16.77;;;;;5.70;95074.00;;;;8268246;28;20634;-70
2024/01/06 04:11:08;;;;;;;45.37;16.20;;;;;5.60;95079.00;;;;8268431;28;20206;-69
2024/01/06 04:15:11;;;;;;;38.97;16.57;;;;;5.70;95088.00;;;;8264631;28;20233;-69
2024/01/06 04:19:16;;;;;;;34.30;15.47;;;;;5.60;95092.00;;;;8268833;28;20233;-70
2024/01/06 04:23:19;;;;;;;43.13;17.50;;;;;5.60;95095.00;;;;8267877;28;20240;-70
2024/01/06 04:27:25;;;;;;;34.50;15.87;;;;;5.60;95095.00;;;;8267494;28;20205;-70
2024/01/06 04:31:28;;;;;;;48.13;18.03;;;;;5.60;95101.00;;;;8266820;28;20924;-69
2024/01/06 04:35:33;;;;;;;45.77;18.07;;;;;5.70;95095.00;;;;8267177;28;20285;-69
2024/01/06 04:39:36;;;;;;;46.07;18.67;;;;;5.80;95100.00;;;;8265230;28;20342;-70
2024/01/06 04:43:39;;;;;;;47.67;18.20;;;;;5.80;95101.00;;;;8267445;28;20292;-70
2024/01/06 04:47:43;;;;;;;59.80;19.93;;;;;5.90;95099.00;;;;8267780;28;20237;-70
2024/01/06 04:51:49;;;;;;;54.20;18.13;;;;;5.90;95102.00;;;;8268418;28;20210;-70
2024/01/06 04:55:53;;;;;;;47.30;18.30;;;;;6.00;95109.00;;;;8266459;28;20701;-71
2024/01/06 04:59:56;;;;;;;42.03;17.47;;;;;6.00;95109.00;;;;8262346;28;20265;-72
2024/01/06 05:03:59;;;;;;;42.87;16.50;;;;;6.00;95116.00;;;;8265357;28;20221;-71
2024/01/06 05:08:05;;;;;;;43.03;16.33;;;;;6.00;95112.00;;;;8266857;28;20995;-71
2024/01/06 05:12:10;;;;;;;45.30;17.00;;;;;6.00;95116.00;;;;8264341;28;20241;-71
2024/01/06 05:16:14;;;;;;;46.30;18.00;;;;;6.00;95122.00;;;;8267627;28;20198;-71
2024/01/06 05:20:17;;;;;;;44.97;16.83;;;;;5.90;95119.00;;;;8266860;28;20268;-71
2024/01/06 05:24:21;;;;;;;47.63;15.53;;;;;6.00;95116.00;;;;8265886;28;20236;-71
2024/01/06 05:28:24;;;;;;;39.43;16.33;;;;;6.00;95113.00;;;;8267355;28;20260;-70
2024/01/06 05:32:29;;;;;;;42.63;16.10;;;;;5.90;95117.00;;;;8266910;28;20202;-70
2024/01/06 05:36:32;;;;;;;42.73;15.70;;;;;5.90;95128.00;;;;8267607;28;20198;-72
2024/01/06 05:40:37;;;;;;;36.77;14.33;;;;;5.80;95126.00;;;;8268474;28;20221;-72
2024/01/06 05:44:40;;;;;;;45.93;16.17;;;;;5.80;95131.00;;;;8267283;28;20789;-72
2024/01/06 05:48:45;;;;;;;39.73;15.23;;;;;5.70;95115.00;;;;8268114;28;20209;-72
2024/01/06 05:52:48;;;;;;;39.50;15.57;;;;;5.70;95110.00;;;;8266291;28;20241;-73
2024/01/06 05:56:53;;;;;;;46.33;15.27;;;;;5.70;95111.00;;;;8267762;28;20217;-72
2024/01/06 06:00:56;;;;;;;39.20;14.77;;;;;5.70;95120.00;;;;8268000;28;20236;-72
2024/01/06 06:05:01;;;;;;;34.77;14.17;;;;;5.70;95127.00;;;;8275299;28;22383;-72
2024/01/06 06:09:06;;;;;;;35.23;13.93;;;;;5.70;95131.00;;;;8274420;28;20206;-71
2024/01/06 06:13:11;;;;;;;34.77;14.77;;;;;5.70;95133.00;;;;8272302;28;20221;-72
2024/01/06 06:17:19;;;;;;;36.57;14.13;;;;;5.70;95140.00;;;;8273698;28;20206;-72
2024/01/06 06:21:22;;;;;;;34.63;13.30;;;;;5.60;95152.00;;;;8272295;28;20230;-72
2024/01/06 06:25:25;;;;;;;40.53;14.37;;;;;5.50;95152.00;;;;8273491;28;20690;-71
2024/01/06 06:29:30;;;;;;;42.73;14.70;;;;;5.40;95154.00;;;;8272162;28;20202;-72
2024/01/06 06:33:34;;;;;;;141.17;21.03;;;;;5.30;95158.00;;;;8271895;28;20324;-71
2024/01/06 06:37:37;;;;;;;173.07;21.00;;;;;5.20;95172.00;;;;8271652;28;20289;-72
2024/01/06 06:41:40;;;;;;;148.20;18.97;;;;;5.20;95178.00;;;;8273005;28;20659;-73
2024/01/06 06:45:45;;;;;;;30.60;13.07;;;;;5.10;95175.00;;;;8270794;28;20225;-73
2024/01/06 06:49:51;;;;;;;40.37;12.93;;;;;5.00;95191.00;;;;8272932;28;20199;-72
2024/01/06 06:53:59;;;;;;;32.63;13.33;;;;;4.90;95215.00;;;;8270297;28;20233;-73
2024/01/06 06:58:02;;;;;;;32.87;13.67;;;;;4.90;95218.00;;;;8272964;28;20215;-72
2024/01/06 07:02:07;;;;;;;30.13;13.07;;;;;5.00;95211.00;;;;8270642;28;20264;-72
2024/01/06 07:06:13;;;;;;;35.60;14.17;;;;;5.10;95231.00;;;;8273200;28;20226;-73
2024/01/06 07:10:19;;;;;;;37.40;12.83;;;;;5.10;95239.00;;;;8269020;28;20197;-73
2024/01/06 07:14:22;;;;;;;32.83;11.77;;;;;5.20;95237.00;;;;8269532;28;20206;-73
2024/01/06 07:18:28;;;;;;;25.50;10.17;;;;;5.20;95231.00;;;;8270574;28;20210;-73
2024/01/06 07:22:32;;;;;;;33.50;11.23;;;;;5.20;95243.00;;;;8271565;28;20230;-73
2024/01/06 07:26:36;;;;;;;29.97;10.63;;;;;5.30;95252.00;;;;8267500;28;20293;-73
2024/01/06 07:30:39;;;;;;;29.20;11.00;;;;;5.30;95254.00;;;;8265066;28;20297;-73
2024/01/06 07:34:44;;;;;;;27.63;10.40;;;;;5.30;95256.00;;;;8265335;28;20204;-73
2024/01/06 07:38:55;;;;;;;42.37;11.67;;;;;5.30;95254.00;;;;8271006;28;20206;-74
2024/01/06 07:42:59;;;;;;;23.03;10.70;;;;;5.30;95256.00;;;;8269994;28;21209;-73
2024/01/06 07:47:05;;;;;;;30.30;10.10;;;;;5.40;95253.00;;;;8268554;28;20198;-74
2024/01/06 07:51:09;;;;;;;22.97;9.50;;;;;5.40;95252.00;;;;8268634;28;20314;-74
2024/01/06 07:55:12;;;;;;;21.93;9.30;;;;;5.40;95253.00;;;;8267289;28;20202;-74
2024/01/06 07:59:15;;;;;;;22.63;9.63;;;;;5.40;95264.00;;;;8268501;28;20221;-73
2024/01/06 08:03:19;;;;;;;21.60;8.77;;;;;5.40;95275.00;;;;8266995;28;20304;-73
2024/01/06 08:07:23;;;;;;;22.10;9.87;;;;;5.40;95274.00;;;;8267832;28;20209;-73
2024/01/06 08:11:26;;;;;;;24.83;10.00;;;;;5.40;95275.00;;;;8267839;28;22626;-73
2024/01/06 08:15:32;;;;;;;27.53;10.20;;;;;5.50;95281.00;;;;8266903;28;20198;-73
2024/01/06 08:19:35;;;;;;;18.97;8.80;;;;;5.50;95283.00;;;;8264525;28;20194;-72
2024/01/06 08:23:40;;;;;;;26.67;9.37;;;;;5.50;95282.00;;;;8267452;28;20283;-73
2024/01/06 08:27:43;;;;;;;19.53;8.60;;;;;5.50;95279.00;;;;8265851;28;20194;-73
2024/01/06 08:31:47;;;;;;;15.53;7.57;;;;;5.60;95284.00;;;;8264763;28;20325;-74
2024/01/06 08:35:50;;;;;;;19.07;8.57;;;;;5.70;95287.00;;;;8262473;28;20244;-73
2024/01/06 08:39:55;;;;;;;20.47;8.07;;;;;5.70;95288.00;;;;8262432;28;20577;-73
2024/01/06 08:43:58;;;;;;;21.80;7.60;;;;;5.70;95296.00;;;;8264921;28;20216;-73
2024/01/06 08:48:02;;;;;;;18.50;8.20;;;;;5.70;95293.00;;;;8265068;28;20206;-73
2024/01/06 08:52:05;;;;;;;18.30;7.83;;;;;5.80;95304.00;;;;8265611;28;20198;-73
2024/01/06 08:56:10;;;;;;;19.27;7.27;;;;;5.80;95296.00;;;;8268795;28;20628;-73
2024/01/06 09:00:14;;;;;;;20.97;7.67;;;;;5.90;95309.00;;;;8266460;28;20277;-74
2024/01/06 09:04:17;;;;;;;20.10;7.40;;;;;6.00;95304.00;;;;8264541;28;20236;-74
2024/01/06 09:08:21;;;;;;;17.90;7.57;;;;;6.00;95316.00;;;;8268529;28;20711;-74
2024/01/06 09:12:25;;;;;;;105.23;54.00;;;;;6.00;95313.00;;;;8267358;28;20310;-74
2024/01/06 09:16:29;;;;;;;18.47;8.10;;;;;6.00;95332.00;;;;8268715;28;20202;-73
2024/01/06 09:20:32;;;;;;;18.33;8.43;;;;;5.90;95330.00;;;;8266556;28;21002;-74
2024/01/06 09:24:35;;;;;;;18.77;7.10;;;;;5.90;95340.00;;;;8267426;28;20317;-74
2024/01/06 09:28:40;;;;;;;23.90;9.57;;;;;5.90;95338.00;;;;8267612;28;20690;-74
2024/01/06 09:32:43;;;;;;;16.93;6.40;;;;;5.90;95334.00;;;;8267060;28;20256;-74
2024/01/06 09:36:46;;;;;;;18.33;6.63;;;;;5.90;95335.00;;;;8266410;28;20575;-74
2024/01/06 09:40:50;;;;;;;26.07;7.17;;;;;5.80;95338.00;;;;8266490;28;20218;-75
2024/01/06 09:44:54;;;;;;;19.73;7.13;;;;;5.90;95345.00;;;;8264520;28;20406;-75
2024/01/06 09:48:58;;;;;;;985.73;424.30;;;;;6.10;95339.00;;;;8266315;28;20301;-76
2024/01/06 09:53:05;;;;;;;101.90;55.97;;;;;6.20;95342.00;;;;8267025;28;20285;-75
2024/01/06 09:57:08;;;;;;;48.33;27.87;;;;;6.30;95349.00;;;;8267519;28;20195;-75
2024/01/06 10:01:14;;;;;;;18.90;7.87;;;;;6.30;95337.00;;;;8264245;28;20344;-76
2024/01/06 10:05:19;;;;;;;18.47;9.93;;;;;6.40;95341.00;;;;8267176;28;20202;-76
2024/01/06 10:09:28;;;;;;;28.63;13.00;;;;;6.40;95341.00;;;;8266080;28;20202;-76
2024/01/06 10:13:31;;;;;;;20.93;12.87;;;;;6.50;95346.00;;;;8266583;28;20209;-76
2024/01/06 10:17:37;;;;;;;20.47;6.93;;;;;6.60;95336.00;;;;8265409;28;20194;-76
2024/01/06 10:21:41;;;;;;;17.87;5.70;;;;;6.60;95347.00;;;;8266418;28;20226;-77
2024/01/06 10:25:44;;;;;;;18.27;6.50;;;;;6.70;95337.00;;;;8264071;28;20670;-75
2024/01/06 10:29:47;;;;;;;13.13;5.73;;;;;6.80;95340.00;;;;8261558;28;20202;-75
2024/01/06 10:33:52;;;;;;;16.03;5.80;;;;;6.90;95342.00;;;;8264411;28;20317;-76
2024/01/06 10:37:55;;;;;;;16.27;6.30;;;;;6.80;95355.00;;;;8267098;28;20294;-76
2024/01/06 10:42:00;;;;;;;15.83;6.37;;;;;6.80;95354.00;;;;8266866;28;20329;-76
2024/01/06 10:46:04;;;;;;;22.83;6.43;;;;;6.80;95361.00;;;;8268405;28;20209;-76
2024/01/06 10:50:10;;;;;;;16.70;6.93;;;;;7.00;95363.00;;;;8270390;28;20740;-76
2024/01/06 10:54:15;;;;;;;15.37;7.27;;;;;7.00;95361.00;;;;8273920;28;20202;-76
2024/01/06 10:58:19;;;;;;;17.30;6.97;;;;;7.00;95359.00;;;;8274301;28;20296;-76
2024/01/06 11:02:25;;;;;;;15.97;6.57;;;;;7.00;95358.00;;;;8272259;28;20230;-76
2024/01/06 11:06:30;;;;;;;16.23;6.27;;;;;6.90;95352.00;;;;8270995;28;22078;-76
2024/01/06 11:10:36;;;;;;;19.43;7.00;;;;;6.90;95345.00;;;;8271402;28;20614;-76
2024/01/06 11:14:39;;;;;;;15.90;6.57;;;;;6.80;95334.00;;;;8272194;28;20198;-76
2024/01/06 11:18:42;;;;;;;14.60;6.23;;;;;6.80;95330.00;;;;8272461;28;20753;-76
2024/01/06 11:22:47;;;;;;;14.80;6.33;;;;;6.80;95329.00;;;;8271495;28;20943;-77
2024/01/06 11:26:52;;;;;;;11.20;6.27;;;;;6.80;95319.00;;;;8270761;28;20345;-76
2024/01/06 11:31:07;;;;;;;12.03;6.00;;;;;7.00;95326.00;;;;8272529;28;20206;-77
2024/01/06 11:35:12;;;;;;;11.00;5.90;;;;;7.00;95319.00;;;;8268213;28;20293;-77
2024/01/06 11:39:39;;;;;;;10.90;5.97;;;;;6.90;95323.00;;;;8271710;28;20618;-77
2024/01/06 11:43:44;;;;;;;10.97;5.23;;;;;6.90;95322.00;;;;8270269;28;20336;-77
2024/01/06 11:47:49;;;;;;;12.03;6.07;;;;;6.90;95320.00;;;;8268833;28;20206;-77
2024/01/06 11:51:52;;;;;;;17.90;5.87;;;;;7.00;95320.00;;;;8268391;28;20242;-77
2024/01/06 11:55:57;;;;;;;12.03;5.50;;;;;7.00;95322.00;;;;8269820;28;20194;-77
2024/01/06 12:00:00;;;;;;;8.73;5.13;;;;;7.00;95330.00;;;;8268687;28;20195;-77
2024/01/06 12:04:06;;;;;;;9.23;5.40;;;;;6.90;95324.00;;;;8267460;28;20229;-76
2024/01/06 12:08:09;;;;;;;10.67;4.50;;;;;6.90;95324.00;;;;8268172;28;20202;-77
2024/01/06 12:12:16;;;;;;;9.00;5.07;;;;;6.80;95321.00;;;;8269519;28;20265;-77
2024/01/06 12:16:19;;;;;;;18.83;5.80;;;;;6.70;95324.00;;;;8268037;28;20194;-77
2024/01/06 12:20:23;;;;;;;9.53;4.90;;;;;6.70;95319.00;;;;8266917;28;20208;-77
2024/01/06 12:24:29;;;;;;;12.03;5.20;;;;;6.60;95321.00;;;;8266702;28;20229;-77
2024/01/06 12:28:38;;;;;;;8.33;4.77;;;;;6.60;95318.00;;;;8268205;28;20205;-76
2024/01/06 12:32:42;;;;;;;7.97;4.80;;;;;6.70;95320.00;;;;8266727;28;20949;-77
2024/01/06 12:36:46;;;;;;;9.90;4.77;;;;;6.80;95313.00;;;;8267748;28;20202;-76
2024/01/06 12:40:50;;;;;;;5.43;4.43;;;;;6.80;95308.00;;;;8266225;28;20198;-76
2024/01/06 12:44:55;;;;;;;8.17;4.43;;;;;6.80;95304.00;;;;8268617;28;20222;-76
2024/01/06 12:48:58;;;;;;;7.87;4.47;;;;;6.80;95313.00;;;;8267110;28;20237;-75
2024/01/06 12:53:01;;;;;;;5.67;4.40;;;;;6.80;95305.00;;;;8266449;28;20286;-76
2024/01/06 12:57:05;;;;;;;8.83;4.73;;;;;6.80;95305.00;;;;8266728;28;20198;-76
2024/01/06 13:01:10;;;;;;;9.47;5.10;;;;;6.70;95307.00;;;;8268360;28;20309;-76
2024/01/06 13:05:13;;;;;;;6.60;4.30;;;;;6.70;95304.00;;;;8267589;28;20245;-76
2024/01/06 13:09:17;;;;;;;9.90;4.57;;;;;6.60;95298.00;;;;8268325;28;20248;-76
2024/01/06 13:13:20;;;;;;;9.67;4.83;;;;;6.60;95306.00;;;;8266673;28;20202;-77
2024/01/06 13:17:25;;;;;;;10.43;4.77;;;;;6.60;95305.00;;;;8266349;28;20283;-77
2024/01/06 13:21:28;;;;;;;9.90;5.00;;;;;6.60;95311.00;;;;8268383;28;22369;-77
2024/01/06 13:25:32;;;;;;;8.60;4.30;;;;;6.60;95308.00;;;;8266719;28;20287;-77
2024/01/06 13:29:35;;;;;;;9.57;4.90;;;;;6.50;95307.00;;;;8268629;28;20610;-77
2024/01/06 13:33:41;;;;;;;10.10;4.87;;;;;6.50;95319.00;;;;8266081;28;20206;-77
2024/01/06 13:37:46;;;;;;;13.77;5.73;;;;;6.40;95324.00;;;;8268005;28;20208;-77
2024/01/06 13:41:49;;;;;;;14.27;6.17;;;;;6.40;95325.00;;;;8263961;28;20347;-77
2024/01/06 13:45:52;;;;;;;8.93;5.60;;;;;6.30;95329.00;;;;8266629;28;20629;-77
2024/01/06 13:49:57;;;;;;;13.93;5.73;;;;;6.30;95326.00;;;;8265379;28;20203;-77
2024/01/06 13:54:01;;;;;;;12.77;4.77;;;;;6.20;95330.00;;;;8265397;28;20229;-77
2024/01/06 13:58:04;;;;;;;8.27;4.30;;;;;6.20;95322.00;;;;8265040;28;20240;-77
2024/01/06 14:02:08;;;;;;;7.13;4.70;;;;;6.10;95333.00;;;;8267211;28;20377;-77
2024/01/06 14:06:12;;;;;;;11.63;4.60;;;;;6.10;95333.00;;;;8266882;28;20202;-77
2024/01/06 14:10:16;;;;;;;8.03;4.03;;;;;6.10;95333.00;;;;8265994;28;20225;-77
2024/01/06 14:14:19;;;;;;;4.90;3.70;;;;;6.10;95333.00;;;;8265207;28;20738;-77
2024/01/06 14:18:23;;;;;;;5.20;3.43;;;;;6.10;95339.00;;;;8267061;28;20206;-76
2024/01/06 14:22:28;;;;;;;5.90;3.30;;;;;6.10;95338.00;;;;8266736;28;20228;-77
2024/01/06 14:26:31;;;;;;;8.37;3.43;;;;;6.10;95348.00;;;;8271645;28;20206;-77
2024/01/06 14:30:34;;;;;;;6.77;3.17;;;;;6.10;95344.00;;;;8271635;28;20280;-77
2024/01/06 14:34:38;;;;;;;7.40;3.63;;;;;6.10;95352.00;;;;8272930;28;20257;-77
2024/01/06 14:38:42;;;;;;;6.20;3.87;;;;;6.10;95344.00;;;;8270771;28;20285;-77
2024/01/06 14:42:45;;;;;;;4.57;3.57;;;;;6.00;95349.00;;;;8272342;28;20637;-77
2024/01/06 14:46:50;;;;;;;5.10;3.40;;;;;6.00;95359.00;;;;8269046;28;21026;-77
2024/01/06 14:50:54;;;;;;;4.80;2.90;;;;;5.90;95365.00;;;;8271257;28;20210;-76
2024/01/06 14:54:58;;;;;;;9.03;3.93;;;;;5.90;95364.00;;;;8272151;28;20198;-76
2024/01/06 14:59:02;;;;;;;4.57;3.00;;;;;5.90;95371.00;;;;8272028;28;20194;-76
2024/01/06 15:03:05;;;;;;;6.83;3.63;;;;;5.90;95370.00;;;;8273315;28;20229;-76
2024/01/06 15:07:08;;;;;;;6.70;3.50;;;;;5.80;95367.00;;;;8269608;28;20674;-76
2024/01/06 15:11:13;;;;;;;6.37;3.53;;;;;5.80;95379.00;;;;8271289;28;20203;-76
2024/01/06 15:15:16;;;;;;;6.33;3.40;;;;;5.80;95378.00;;;;8270775;28;20659;-76
2024/01/06 15:19:19;;;;;;;8.57;3.60;;;;;5.70;95380.00;;;;8273219;28;20202;-76
2024/01/06 15:23:23;;;;;;;8.93;4.40;;;;;5.70;95377.00;;;;8268962;28;20230;-77
2024/01/06 15:27:27;;;;;;;4.73;3.50;;;;;5.70;95387.00;;;;8263880;28;20336;-77
2024/01/06 15:31:31;;;;;;;4.23;3.20;;;;;5.60;95380.00;;;;8263723;28;20230;-77
2024/01/06 15:35:35;;;;;;;9.20;3.33;;;;;5.60;95383.00;;;;8265980;28;20205;-77
2024/01/06 15:39:38;;;;;;;4.03;3.10;;;;;5.50;95384.00;;;;8270484;28;20289;-76
2024/01/06 15:43:42;;;;;;;5.83;3.13;;;;;5.50;95387.00;;;;8270035;28;20228;-78
2024/01/06 15:47:45;;;;;;;9.67;2.90;;;;;5.50;95388.00;;;;8268669;28;22173;-78
2024/01/06 15:51:49;;;;;;;3.93;2.97;;;;;5.50;95389.00;;;;8270179;28;20206;-78
2024/01/06 15:55:52;;;;;;;11.20;4.13;;;;;5.50;95392.00;;;;8269362;28;20229;-80
2024/01/06 15:59:57;;;;;;;5.17;3.10;;;;;5.50;95388.00;;;;8269894;28;20640;-81
2024/01/06 16:04:00;;;;;;;7.07;3.57;;;;;5.50;95389.00;;;;8266537;28;20320;-78
2024/01/06 16:08:10;;;;;;;3.20;2.87;;;;;5.50;95382.00;;;;8268816;28;20213;-78
2024/01/06 16:12:13;;;;;;;5.17;3.17;;;;;5.40;95396.00;;;;8267902;28;20697;-79
2024/01/06 16:16:17;;;;;;;4.30;2.87;;;;;5.40;95396.00;;;;8268478;28;20890;-79
2024/01/06 16:20:21;;;;;;;6.33;3.10;;;;;5.40;95401.00;;;;8269119;28;20194;-79
2024/01/06 16:24:26;;;;;;;6.73;2.87;;;;;5.50;95394.00;;;;8267816;28;20590;-81
2024/01/06 16:28:29;;;;;;;4.73;2.83;;;;;5.50;95393.00;;;;8264196;28;20202;-81
2024/01/06 16:32:34;;;;;;;5.03;3.97;;;;;5.50;95397.00;;;;8266163;28;20648;-82
2024/01/06 16:36:37;;;;;;;5.83;2.73;;;;;5.50;95390.00;;;;8267346;28;20198;-80
2024/01/06 16:40:40;;;;;;;3.60;2.83;;;;;5.50;95410.00;;;;8266703;28;20212;-81
2024/01/06 16:44:43;;;;;;;6.60;2.73;;;;;5.40;95400.00;;;;8268952;28;21037;-80
2024/01/06 16:48:48;;;;;;;7.37;2.80;;;;;5.40;95406.00;;;;8267773;28;20202;-81
2024/01/06 16:52:52;;;;;;;7.97;2.90;;;;;5.30;95407.00;;;;8266147;28;20221;-80
2024/01/06 16:56:59;;;;;;;5.57;2.97;;;;;5.30;95416.00;;;;8266281;28;20194;-80
2024/01/06 17:01:03;;;;;;;5.00;2.80;;;;;5.30;95407.00;;;;8266128;28;20280;-80
2024/01/06 17:05:09;;;;;;;2.77;2.53;;;;;5.20;95414.00;;;;8267426;28;20237;-81
2024/01/06 17:09:12;;;;;;;5.53;2.77;;;;;5.20;95407.00;;;;8268538;28;20660;-78
2024/01/06 17:13:17;;;;;;;3.53;2.70;;;;;5.20;95412.00;;;;8266256;28;20207;-78
2024/01/06 17:17:20;;;;;;;5.97;2.97;;;;;5.10;95405.00;;;;8264289;28;20317;-78
2024/01/06 17:21:24;;;;;;;5.17;2.93;;;;;5.10;95416.00;;;;8261023;28;20842;-78
2024/01/06 17:25:28;;;;;;;6.83;3.00;;;;;5.10;95419.00;;;;8267013;28;20699;-78
2024/01/06 17:29:31;;;;;;;9.97;3.63;;;;;5.10;95413.00;;;;8264418;28;20828;-77
2024/01/06 17:33:34;;;;;;;5.80;4.50;;;;;5.10;95428.00;;;;8265904;28;22563;-77
2024/01/06 17:37:39;;;;;;;11.13;8.40;;;;;5.10;95426.00;;;;8265573;28;20221;-77
2024/01/06 17:41:42;;;;;;;5.93;3.57;;;;;5.10;95437.00;;;;8264497;28;20229;-78
2024/01/06 17:45:59;;;;;;;6.73;3.17;;;;;5.10;95428.00;;;;8267375;28;20257;-78
2024/01/06 17:50:02;;;;;;;7.43;3.60;;;;;5.10;95438.00;;;;8267100;28;20916;-78
2024/01/06 17:54:07;;;;;;;6.00;3.50;;;;;5.10;95431.00;;;;8266442;28;20236;-79
2024/01/06 17:58:10;;;;;;;8.90;4.83;;;;;5.10;95431.00;;;;8267141;28;20194;-77
2024/01/06 18:02:14;;;;;;;5.67;3.90;;;;;5.10;95438.00;;;;8271873;28;20832;-78
2024/01/06 18:06:17;;;;;;;6.57;3.23;;;;;5.10;95440.00;;;;8272558;28;20232;-77
2024/01/06 18:10:23;;;;;;;5.67;3.30;;;;;5.10;95438.00;;;;8273248;28;20202;-77
2024/01/06 18:14:31;;;;;;;4.70;2.80;;;;;5.10;95440.00;;;;8272390;28;20212;-78
2024/01/06 18:18:34;;;;;;;6.03;3.00;;;;;5.10;95435.00;;;;8274163;28;20244;-77
2024/01/06 18:22:38;;;;;;;8.13;3.60;;;;;5.10;95437.00;;;;8272234;28;20206;-77
2024/01/06 18:26:42;;;;;;;7.23;3.43;;;;;5.00;95441.00;;;;8269043;28;20253;-78
2024/01/06 18:30:45;;;;;;;7.43;3.97;;;;;5.00;95438.00;;;;8268620;28;21717;-78
2024/01/06 18:34:48;;;;;;;11.23;3.60;;;;;5.00;95438.00;;;;8271418;28;20253;-78
2024/01/06 18:38:52;;;;;;;3.77;3.30;;;;;5.00;95434.00;;;;8269142;28;20202;-78
2024/01/06 18:42:56;;;;;;;3.83;3.17;;;;;5.00;95437.00;;;;8271324;28;20198;-78
2024/01/06 18:46:59;;;;;;;6.10;2.60;;;;;5.00;95444.00;;;;8270007;28;20230;-78
2024/01/06 18:51:03;;;;;;;6.93;3.30;;;;;5.00;95440.00;;;;8270940;28;21136;-78
2024/01/06 18:55:06;;;;;;;7.47;3.57;;;;;5.00;95435.00;;;;8269103;28;20201;-78
2024/01/06 18:59:11;;;;;;;11.47;6.37;;;;;5.00;95434.00;;;;8270836;28;20991;-78
2024/01/06 19:03:14;;;;;;;7.00;4.27;;;;;5.00;95436.00;;;;8268458;28;20918;-78
2024/01/06 19:07:19;;;;;;;7.03;3.40;;;;;5.10;95433.00;;;;8271243;28;20241;-78
2024/01/06 19:11:22;;;;;;;6.93;3.50;;;;;5.10;95436.00;;;;8269227;28;20329;-78
2024/01/06 19:15:27;;;;;;;7.60;3.63;;;;;5.10;95437.00;;;;8269359;28;20290;-78
2024/01/06 19:19:30;;;;;;;9.63;3.67;;;;;5.10;95437.00;;;;8270133;28;20719;-78
2024/01/06 19:23:33;;;;;;;9.77;3.63;;;;;5.20;95440.00;;;;8270144;28;20239;-78
2024/01/06 19:27:38;;;;;;;8.70;4.37;;;;;5.20;95442.00;;;;8267626;28;20329;-78
2024/01/06 19:31:44;;;;;;;9.50;3.57;;;;;5.20;95451.00;;;;8268699;28;20249;-78
2024/01/06 19:35:47;;;;;;;13.57;4.07;;;;;5.20;95437.00;;;;8269204;28;20208;-78
2024/01/06 19:39:51;;;;;;;8.00;3.70;;;;;5.20;95433.00;;;;8269191;28;20224;-78
2024/01/06 19:43:54;;;;;;;9.30;4.03;;;;;5.20;95430.00;;;;8268288;28;20209;-78
2024/01/06 19:47:59;;;;;;;7.07;4.10;;;;;5.20;95435.00;;;;8265857;28;20235;-78
2024/01/06 19:52:02;;;;;;;6.87;4.17;;;;;5.10;95435.00;;;;8270028;28;20234;-77
2024/01/06 19:56:06;;;;;;;9.47;4.10;;;;;5.10;95442.00;;;;8269096;28;20285;-78
2024/01/06 20:00:10;;;;;;;11.93;5.00;;;;;5.10;95437.00;;;;8270227;28;20323;-77
2024/01/06 20:04:14;;;;;;;5.87;4.23;;;;;5.10;95443.00;;;;8269376;28;20260;-77
2024/01/06 20:08:17;;;;;;;7.40;4.10;;;;;5.10;95434.00;;;;8270654;28;20265;-77
2024/01/06 20:12:20;;;;;;;7.20;4.67;;;;;5.10;95435.00;;;;8268508;28;20205;-77
2024/01/06 20:16:25;;;;;;;7.93;4.47;;;;;5.10;95430.00;;;;8271097;28;20206;-77
2024/01/06 20:20:29;;;;;;;11.10;4.30;;;;;5.10;95432.00;;;;8266819;28;20197;-78